PWSweather.com
Personal Weather Stations
Station Observations
WISCHPK61
Green Bay Schmitt Park, Green Bay, WI 54311

Green Bay Schmitt ParkGreen Bay, WI 54311

Lat: 44.514277, Lon: -87.935067

Elevation: 735

Station Type: Acu Rite Pro Weather Center model 02032C

http://greenbayweathercam.com

High Low Average
Temperature 37.2°F2.9°C 21.2°F-6.0°C 31.3°F-0.4°C
Dew Point 35.3°F1.8°C 12.2°F-11.0°C 30.2°F-1.0°C
Winds 3.5 mph 5.6 kmh Calm Calm Calm WNWCalm WNW
Wind Gusts 6.9 mph11.1 kmh -- 2.0 mph3.2 kmh
Humidity 99% 61% 96%
Pressure 29.25 in990.5 mb 28.96 in980.7 mb -
Precipitation 0.01 in0.3 mm - -
Hour Temp Dew Point Humidity Winds Wind Gusts Pressure Precip Precip Rate Daily Precip Total
12:00 AM 36.1°F2.3°C 32.3°F0.2°C 86% Calm Calm -- 28.96 in980.7 mb - 0.00 in0.0 mm 1.83 in46.5 mm
01:00 AM 35.6°F2.0°C 35.3°F1.8°C 99% 1.2 mph W1.9 kmh W 5.8 mph9.3 kmh 28.96 in980.7 mb - 0.00 in0.0 mm 0.00 in0.0 mm
02:00 AM 34.7°F1.5°C 34.5°F1.4°C 99% Calm Calm -- 28.98 in981.4 mb - 0.00 in0.0 mm 0.00 in0.0 mm
03:00 AM 34.5°F1.4°C 34.2°F1.2°C 99% Calm Calm 1.2 mph1.9 kmh 28.99 in981.7 mb - 0.00 in0.0 mm 0.00 in0.0 mm
04:00 AM 33.8°F1.0°C 33.5°F0.8°C 99% Calm Calm -- 28.99 in981.7 mb - 0.00 in0.0 mm 0.00 in0.0 mm
05:00 AM 33.8°F1.0°C 33.5°F0.8°C 99% Calm Calm 1.2 mph1.9 kmh 28.97 in981.0 mb - 0.00 in0.0 mm 0.00 in0.0 mm
06:00 AM 33.5°F0.8°C 33.2°F0.7°C 99% Calm Calm -- 28.96 in980.7 mb - 0.00 in0.0 mm 0.00 in0.0 mm
07:00 AM 33.4°F0.8°C 33.1°F0.6°C 99% Calm Calm 2.3 mph3.7 kmh 28.97 in981.0 mb - 0.00 in0.0 mm 0.00 in0.0 mm
08:00 AM 33.3°F0.7°C 30.7°F-0.7°C 90% Calm Calm -- 28.96 in980.7 mb - 0.00 in0.0 mm 0.00 in0.0 mm
09:00 AM 33.3°F0.7°C 33.0°F0.6°C 99% Calm Calm -- 28.98 in981.4 mb - 0.00 in0.0 mm 0.00 in0.0 mm
10:00 AM 34.2°F1.2°C 33.9°F1.1°C 99% Calm Calm 1.2 mph1.9 kmh 28.98 in981.4 mb - 0.00 in0.0 mm 0.00 in0.0 mm
11:00 AM 34.5°F1.4°C 34.2°F1.2°C 99% Calm Calm -- 28.98 in981.4 mb - 0.00 in0.0 mm 0.00 in0.0 mm
12:00 PM 37.2°F2.9°C 34.8°F1.6°C 91% 3.5 mph WNW5.6 kmh WNW 5.8 mph9.3 kmh 28.96 in980.7 mb - 0.00 in0.0 mm 0.00 in0.0 mm
02:00 PM 36.3°F2.4°C 32.5°F0.3°C 86% 2.3 mph NW3.7 kmh NW 6.9 mph11.1 kmh 28.96 in980.7 mb - 0.01 in0.3 mm 0.01 in0.3 mm
03:00 PM 33.6°F0.9°C 33.3°F0.7°C 99% 3.5 mph N5.6 kmh N 6.9 mph11.1 kmh 29.01 in982.4 mb - 0.00 in0.0 mm 0.01 in0.3 mm
04:00 PM 32.4°F0.2°C 32.2°F0.1°C 99% Calm Calm 1.2 mph1.9 kmh 29.04 in983.4 mb - 0.00 in0.0 mm 0.01 in0.3 mm
05:00 PM 30.4°F-0.9°C 30.2°F-1.0°C 99% Calm Calm 1.2 mph1.9 kmh 29.07 in984.4 mb - 0.00 in0.0 mm 0.01 in0.3 mm
06:00 PM 29.1°F-1.6°C 28.9°F-1.7°C 99% Calm Calm -- 29.09 in985.1 mb - 0.00 in0.0 mm 0.01 in0.3 mm
07:00 PM 27.1°F-2.7°C 26.9°F-2.8°C 99% Calm Calm -- 29.13 in986.5 mb - 0.00 in0.0 mm 0.01 in0.3 mm
08:00 PM 25.9°F-3.4°C 25.7°F-3.5°C 99% Calm Calm -- 29.16 in987.5 mb - 0.00 in0.0 mm 0.01 in0.3 mm
09:00 PM 24.8°F-4.0°C 24.6°F-4.1°C 99% Calm Calm 6.9 mph11.1 kmh 29.18 in988.1 mb - 0.00 in0.0 mm 0.01 in0.3 mm
10:00 PM 23.7°F-4.6°C 12.2°F-11.0°C 61% Calm Calm -- 29.21 in989.2 mb - 0.00 in0.0 mm 0.01 in0.3 mm
11:00 PM 22.6°F-5.2°C 22.4°F-5.3°C 99% Calm Calm -- 29.22 in989.5 mb - 0.00 in0.0 mm 0.01 in0.3 mm